createdAt,value
2024-04-10T00:00:31.776Z,18.64
2024-04-10T00:02:59.891Z,18.66
2024-04-10T00:05:28.201Z,18.71
2024-04-10T00:07:56.700Z,18.73
2024-04-10T00:10:24.964Z,18.77
2024-04-10T00:12:52.991Z,18.87
2024-04-10T00:15:21.275Z,18.83
2024-04-10T00:17:52.854Z,18.77
2024-04-10T00:20:21.770Z,18.73
2024-04-10T00:22:49.681Z,18.73
2024-04-10T00:25:17.685Z,18.73
2024-04-10T00:27:46.389Z,18.68
2024-04-10T00:30:14.661Z,18.73
2024-04-10T00:32:42.773Z,18.78
2024-04-10T00:35:11.063Z,18.80
2024-04-10T00:37:40.032Z,18.83
2024-04-10T00:40:10.680Z,18.84
2024-04-10T00:42:38.956Z,18.83
2024-04-10T00:45:09.812Z,18.82
2024-04-10T00:47:38.061Z,18.80
2024-04-10T00:50:08.586Z,18.81
2024-04-10T00:52:36.679Z,18.86
2024-04-10T00:55:05.703Z,18.89
2024-04-10T00:57:33.876Z,18.92
2024-04-10T01:00:01.921Z,18.91
2024-04-10T01:02:33.394Z,18.86
2024-04-10T01:05:02.044Z,18.84
2024-04-10T01:07:30.318Z,18.82
2024-04-10T01:09:58.762Z,18.83
2024-04-10T01:12:30.220Z,18.76
2024-04-10T01:14:58.412Z,18.73
2024-04-10T01:17:26.937Z,18.71
2024-04-10T01:19:59.479Z,18.69
2024-04-10T01:22:27.655Z,18.70
2024-04-10T01:24:56.036Z,18.71
2024-04-10T01:27:23.912Z,18.72
2024-04-10T01:29:52.136Z,18.54
2024-04-10T01:32:20.417Z,18.44
2024-04-10T01:34:49.033Z,18.32
2024-04-10T01:37:19.695Z,18.21
2024-04-10T01:39:47.894Z,17.91
2024-04-10T01:42:16.280Z,17.87
2024-04-10T01:44:44.817Z,17.60
2024-04-10T01:47:13.384Z,17.48
2024-04-10T01:49:41.623Z,17.28
2024-04-10T01:52:10.363Z,17.25
2024-04-10T01:54:39.078Z,17.29
2024-04-10T01:57:07.225Z,17.26
2024-04-10T01:59:35.023Z,17.29
2024-04-10T02:02:03.798Z,17.32
2024-04-10T02:04:33.183Z,17.32
2024-04-10T02:07:01.448Z,17.30
2024-04-10T02:09:29.796Z,17.25
2024-04-10T02:11:58.674Z,17.32
2024-04-10T02:14:27.220Z,17.29
2024-04-10T02:16:55.587Z,17.19
2024-04-10T02:19:23.702Z,17.08
2024-04-10T02:21:54.716Z,17.09
2024-04-10T02:24:23.035Z,17.16
2024-04-10T02:26:51.681Z,17.19
2024-04-10T02:29:20.727Z,17.22
2024-04-10T02:31:49.036Z,17.20
2024-04-10T02:34:17.726Z,17.17
2024-04-10T02:36:45.639Z,17.18
2024-04-10T02:39:16.240Z,17.20
2024-04-10T02:41:44.508Z,17.24
2024-04-10T02:44:12.935Z,17.19
2024-04-10T02:46:41.219Z,17.17
2024-04-10T02:49:09.500Z,17.17
2024-04-10T02:51:37.653Z,17.19
2024-04-10T02:54:06.091Z,17.27
2024-04-10T02:56:34.731Z,17.29
2024-04-10T02:59:02.967Z,17.33
2024-04-10T03:01:31.515Z,17.32
2024-04-10T03:03:59.798Z,17.33
2024-04-10T03:06:29.002Z,17.32
2024-04-10T03:08:57.317Z,17.36
2024-04-10T03:11:26.605Z,17.37
2024-04-10T03:13:54.556Z,17.35
2024-04-10T03:16:23.211Z,17.40
2024-04-10T03:18:51.555Z,17.43
2024-04-10T03:21:20.051Z,17.45
2024-04-10T03:23:48.546Z,17.41
2024-04-10T03:26:17.019Z,17.42
2024-04-10T03:28:45.011Z,17.46
2024-04-10T03:31:13.752Z,17.48
2024-04-10T03:33:42.099Z,17.52
2024-04-10T03:36:10.408Z,17.58
2024-04-10T03:38:38.677Z,17.62
2024-04-10T03:41:07.281Z,17.62
2024-04-10T03:43:35.335Z,17.62
2024-04-10T03:46:03.717Z,17.58
2024-04-10T03:48:31.818Z,17.57
2024-04-10T03:51:04.162Z,17.59
2024-04-10T03:53:32.548Z,17.65
2024-04-10T03:56:00.634Z,17.62
2024-04-10T03:58:28.935Z,17.58
2024-04-10T04:00:57.106Z,17.57
2024-04-10T04:03:24.984Z,17.53
2024-04-10T04:05:53.300Z,17.48
2024-04-10T04:08:22.554Z,17.47
2024-04-10T04:10:50.641Z,17.48
2024-04-10T04:13:18.623Z,17.51
2024-04-10T04:15:47.047Z,17.51
2024-04-10T04:18:15.115Z,17.55
2024-04-10T04:20:43.124Z,17.57
2024-04-10T04:23:11.423Z,17.58
2024-04-10T04:25:40.032Z,17.57
2024-04-10T04:28:08.195Z,17.54
2024-04-10T04:30:37.505Z,17.45
2024-04-10T04:33:06.553Z,17.46
2024-04-10T04:35:35.541Z,17.43
2024-04-10T04:38:03.434Z,17.43
2024-04-10T04:40:32.518Z,17.43
2024-04-10T04:43:01.912Z,17.39
2024-04-10T04:45:30.657Z,17.36
2024-04-10T04:47:59.200Z,17.37
2024-04-10T04:50:27.026Z,17.40
2024-04-10T04:52:55.329Z,17.44
2024-04-10T04:55:23.490Z,17.43
2024-04-10T04:57:52.258Z,17.43
2024-04-10T05:00:23.786Z,17.45
2024-04-10T05:02:51.943Z,17.52
2024-04-10T05:05:20.442Z,17.57
2024-04-10T05:07:49.763Z,17.60
2024-04-10T05:10:17.986Z,17.61
2024-04-10T05:12:45.934Z,17.63
2024-04-10T05:15:14.729Z,17.65
2024-04-10T05:17:43.402Z,17.70
2024-04-10T05:20:17.761Z,17.72
2024-04-10T05:22:46.218Z,17.72
2024-04-10T05:25:14.293Z,17.72
2024-04-10T05:27:45.190Z,17.74
2024-04-10T05:30:14.605Z,17.75
2024-04-10T05:32:42.752Z,17.77
2024-04-10T05:35:14.468Z,17.79
2024-04-10T05:37:43.463Z,17.82
2024-04-10T05:40:15.303Z,17.87
2024-04-10T05:42:43.684Z,17.89
2024-04-10T05:45:14.080Z,17.93
2024-04-10T05:47:42.528Z,17.94
2024-04-10T05:50:11.077Z,17.94
2024-04-10T05:52:41.184Z,17.93
2024-04-10T05:55:10.146Z,17.91
2024-04-10T05:57:38.776Z,17.92
2024-04-10T06:00:11.279Z,17.96
2024-04-10T06:02:44.370Z,17.97
2024-04-10T06:05:12.404Z,18.04
2024-04-10T06:07:44.912Z,18.10
2024-04-10T06:10:13.118Z,18.09
2024-04-10T06:12:41.583Z,18.10
2024-04-10T06:15:10.192Z,18.15
2024-04-10T06:17:39.501Z,18.19
2024-04-10T06:20:12.675Z,18.19
2024-04-10T06:22:41.634Z,18.22
2024-04-10T06:25:09.044Z,18.21
2024-04-10T06:27:37.684Z,18.19
2024-04-10T06:30:09.216Z,18.22
2024-04-10T06:32:37.568Z,18.23
2024-04-10T06:35:07.088Z,18.24
2024-04-10T06:37:35.311Z,18.08
2024-04-10T06:40:03.635Z,17.54
2024-04-10T06:42:32.452Z,17.31
2024-04-10T06:45:01.088Z,17.08
2024-04-10T06:47:29.472Z,16.97
2024-04-10T06:49:57.518Z,16.91
2024-04-10T06:52:26.264Z,16.90
2024-04-10T06:54:54.128Z,16.72
2024-04-10T06:57:22.331Z,16.77
2024-04-10T06:59:50.569Z,16.80
2024-04-10T07:02:19.110Z,16.83
2024-04-10T07:04:52.147Z,16.65
2024-04-10T07:07:21.130Z,16.63
2024-04-10T07:09:51.089Z,16.73
2024-04-10T07:12:19.864Z,16.68
2024-04-10T07:14:48.274Z,16.47
2024-04-10T07:17:16.838Z,16.29
2024-04-10T07:19:45.148Z,16.07
2024-04-10T07:22:13.205Z,16.00
2024-04-10T07:24:41.966Z,15.94
2024-04-10T07:27:10.197Z,15.89
2024-04-10T07:29:38.735Z,15.77
2024-04-10T07:32:07.088Z,15.48
2024-04-10T07:34:35.134Z,15.17
2024-04-10T07:37:04.899Z,15.05
2024-04-10T07:39:32.591Z,15.08
2024-04-10T07:42:00.991Z,15.13
2024-04-10T07:44:29.975Z,15.12
2024-04-10T07:46:58.348Z,15.18
2024-04-10T07:49:26.381Z,15.02
2024-04-10T07:51:55.014Z,15.04
2024-04-10T07:54:22.959Z,14.97
2024-04-10T07:56:51.398Z,14.98
2024-04-10T07:59:20.268Z,14.98
2024-04-10T08:01:49.120Z,14.80
2024-04-10T08:04:17.679Z,14.72
2024-04-10T08:06:45.901Z,14.64
2024-04-10T08:09:13.690Z,14.57
2024-04-10T08:11:41.591Z,14.52
2024-04-10T08:14:09.940Z,14.46
2024-04-10T08:16:37.995Z,14.53
2024-04-10T08:19:08.337Z,14.62
2024-04-10T08:21:42.537Z,14.68
2024-04-10T08:24:11.118Z,14.76
2024-04-10T08:26:40.010Z,14.75
2024-04-10T08:29:11.069Z,14.79
2024-04-10T08:31:38.998Z,14.85
2024-04-10T08:34:07.506Z,14.96
2024-04-10T08:36:35.785Z,15.11
2024-04-10T08:39:06.088Z,15.24
2024-04-10T08:41:33.472Z,15.34
2024-04-10T08:44:01.874Z,15.42
2024-04-10T08:46:30.313Z,15.45
2024-04-10T08:48:58.949Z,15.52
2024-04-10T08:51:28.489Z,15.66
2024-04-10T08:53:56.819Z,15.82
2024-04-10T08:56:25.249Z,15.78
2024-04-10T08:58:55.303Z,15.71
2024-04-10T09:01:29.290Z,15.62
2024-04-10T09:03:58.360Z,15.53
2024-04-10T09:06:26.626Z,15.34
2024-04-10T09:09:01.435Z,15.26
2024-04-10T09:11:29.966Z,15.15
2024-04-10T09:14:04.292Z,15.24
2024-04-10T09:16:32.568Z,15.20
2024-04-10T09:19:20.069Z,15.31
2024-04-10T09:22:07.691Z,15.28
2024-04-10T09:24:36.242Z,15.23
2024-04-10T09:27:10.836Z,15.11
2024-04-10T09:29:38.646Z,15.02
2024-04-10T09:32:09.264Z,15.00
2024-04-10T09:34:37.706Z,14.96
2024-04-10T09:37:07.778Z,14.99
2024-04-10T09:39:37.364Z,15.09
2024-04-10T09:42:06.026Z,15.23
2024-04-10T09:44:35.075Z,15.35
2024-04-10T09:47:03.626Z,15.29
2024-04-10T09:49:43.311Z,15.15
2024-04-10T09:52:12.380Z,15.13
2024-04-10T09:54:40.523Z,15.21
2024-04-10T09:57:10.832Z,15.33
2024-04-10T09:59:39.111Z,15.45
2024-04-10T10:02:30.186Z,15.60
2024-04-10T10:05:02.365Z,15.70
2024-04-10T10:07:31.062Z,15.81
2024-04-10T10:10:09.130Z,15.88
2024-04-10T10:12:38.354Z,16.00
2024-04-10T10:15:09.982Z,16.13
2024-04-10T10:17:50.142Z,16.25
2024-04-10T10:20:25.665Z,16.28
2024-04-10T10:23:10.497Z,16.33
2024-04-10T10:25:41.483Z,16.36
2024-04-10T10:28:10.143Z,16.65
2024-04-10T10:30:37.847Z,16.67
2024-04-10T10:33:07.737Z,16.82
2024-04-10T10:35:36.502Z,16.89
2024-04-10T10:38:08.901Z,16.91
2024-04-10T10:40:36.827Z,16.91
2024-04-10T10:43:09.371Z,16.94
2024-04-10T10:45:37.785Z,16.96
2024-04-10T10:48:08.887Z,16.73
2024-04-10T10:50:36.767Z,16.65
2024-04-10T10:53:04.546Z,16.47
2024-04-10T10:55:33.136Z,16.38
2024-04-10T10:58:07.042Z,16.41
2024-04-10T11:00:35.807Z,16.48
2024-04-10T11:03:16.806Z,16.55
2024-04-10T11:05:52.810Z,16.63
2024-04-10T11:08:24.938Z,16.66
2024-04-10T11:10:53.587Z,16.77
2024-04-10T11:13:22.285Z,17.04
2024-04-10T11:15:50.885Z,17.22
2024-04-10T11:18:19.655Z,17.12
2024-04-10T11:20:48.654Z,17.12
2024-04-10T11:23:17.256Z,17.14
2024-04-10T11:25:44.770Z,17.20
2024-04-10T11:28:13.058Z,17.30
2024-04-10T11:30:41.251Z,17.46
2024-04-10T11:33:12.825Z,17.57
2024-04-10T11:35:42.583Z,17.69
2024-04-10T11:38:10.579Z,17.83
2024-04-10T11:40:39.281Z,17.90
2024-04-10T11:43:07.176Z,18.04
2024-04-10T11:45:36.031Z,18.33
2024-04-10T11:48:09.327Z,18.52
2024-04-10T11:50:39.314Z,18.32
2024-04-10T11:53:08.105Z,18.24
2024-04-10T11:55:35.906Z,18.19
2024-04-10T11:58:05.834Z,18.18
2024-04-10T12:00:35.417Z,18.05
2024-04-10T12:03:04.118Z,17.85
2024-04-10T12:05:32.248Z,17.89
2024-04-10T12:08:08.472Z,17.78
2024-04-10T12:10:38.367Z,17.60
2024-04-10T12:13:06.751Z,17.43
2024-04-10T12:15:38.136Z,17.37
2024-04-10T12:18:07.093Z,17.34
2024-04-10T12:20:35.527Z,17.32
2024-04-10T12:23:04.036Z,17.32
2024-04-10T12:25:32.445Z,17.32
2024-04-10T12:28:00.887Z,17.34
2024-04-10T12:30:29.152Z,17.36
2024-04-10T12:33:01.217Z,17.39
2024-04-10T12:35:48.044Z,17.48
2024-04-10T12:38:16.251Z,17.55
2024-04-10T12:40:44.797Z,17.70
2024-04-10T12:43:12.908Z,17.78
2024-04-10T12:45:41.136Z,18.05
2024-04-10T12:48:11.566Z,18.16
2024-04-10T12:50:39.886Z,18.22
2024-04-10T12:53:08.273Z,18.22
2024-04-10T12:55:37.850Z,18.16
2024-04-10T12:58:06.790Z,18.21
2024-04-10T13:00:35.077Z,18.18
2024-04-10T13:03:03.727Z,18.19
2024-04-10T13:05:32.090Z,18.22
2024-04-10T13:08:00.500Z,18.07
2024-04-10T13:10:28.458Z,17.98
2024-04-10T13:12:56.498Z,17.89
2024-04-10T13:15:25.795Z,17.77
2024-04-10T13:17:54.839Z,17.69
2024-04-10T13:20:24.588Z,17.52
2024-04-10T13:22:52.874Z,17.57
2024-04-10T13:25:21.821Z,17.56
2024-04-10T13:27:50.218Z,17.51
2024-04-10T13:30:18.061Z,17.51
2024-04-10T13:32:47.530Z,17.44
2024-04-10T13:35:16.175Z,17.44
2024-04-10T13:37:44.012Z,17.38
2024-04-10T13:40:14.835Z,17.39
2024-04-10T13:42:42.601Z,17.43
2024-04-10T13:45:12.075Z,17.63
2024-04-10T13:47:40.435Z,17.86
2024-04-10T13:50:10.073Z,18.19
2024-04-10T13:52:39.458Z,18.17
2024-04-10T13:55:08.613Z,18.59
2024-04-10T13:57:36.837Z,19.06
2024-04-10T14:00:12.176Z,18.90
2024-04-10T14:02:44.058Z,18.55
2024-04-10T14:05:12.609Z,18.07
2024-04-10T14:07:41.108Z,17.69
2024-04-10T14:10:10.760Z,17.38
2024-04-10T14:12:39.328Z,17.05
2024-04-10T14:15:09.138Z,16.77
2024-04-10T14:17:37.221Z,16.44
2024-04-10T14:20:12.061Z,16.19
2024-04-10T14:22:40.046Z,16.09
2024-04-10T14:25:09.708Z,15.89
2024-04-10T14:27:37.808Z,15.90
2024-04-10T14:30:07.991Z,15.97
2024-04-10T14:32:37.112Z,15.99
2024-04-10T14:35:10.876Z,16.05
2024-04-10T14:37:39.484Z,16.07
2024-04-10T14:40:11.631Z,16.09
2024-04-10T14:42:39.837Z,16.11
2024-04-10T14:45:11.621Z,16.06
2024-04-10T14:47:40.150Z,16.08
2024-04-10T14:50:09.589Z,16.07
2024-04-10T14:52:40.152Z,16.11
2024-04-10T14:55:09.158Z,16.13
2024-04-10T14:57:41.554Z,16.20
2024-04-10T15:00:12.517Z,16.24
2024-04-10T15:02:40.573Z,16.30
2024-04-10T15:05:08.982Z,16.34
2024-04-10T15:10:19.937Z,16.39
2024-04-10T15:12:49.665Z,16.41
2024-04-10T15:15:17.545Z,16.45
2024-04-10T15:17:45.364Z,16.49
2024-04-10T15:20:14.292Z,16.54
2024-04-10T15:22:42.687Z,16.46
2024-04-10T15:25:10.933Z,16.49
2024-04-10T15:27:39.212Z,16.53
2024-04-10T15:30:09.386Z,16.55
2024-04-10T15:32:38.275Z,16.58
2024-04-10T15:35:09.504Z,16.62
2024-04-10T15:37:38.076Z,16.64
2024-04-10T15:40:10.426Z,16.71
2024-04-10T15:42:38.903Z,16.79
2024-04-10T15:45:08.585Z,16.82
2024-04-10T15:47:42.075Z,16.85
2024-04-10T15:50:10.695Z,16.91
2024-04-10T15:52:49.884Z,16.92
2024-04-10T15:55:19.629Z,16.99
2024-04-10T15:57:47.991Z,17.04
2024-04-10T16:00:16.506Z,17.16
2024-04-10T16:02:45.938Z,17.33
2024-04-10T16:05:14.406Z,17.52
2024-04-10T16:07:43.051Z,17.60
2024-04-10T16:10:11.284Z,17.65
2024-04-10T16:12:39.612Z,17.65
2024-04-10T16:15:09.893Z,17.72
2024-04-10T16:17:38.360Z,17.78
2024-04-10T16:20:10.025Z,17.78
2024-04-10T16:22:38.348Z,17.76
2024-04-10T16:25:08.334Z,17.83
2024-04-10T16:27:38.908Z,17.70
2024-04-10T16:30:09.960Z,17.64
2024-04-10T16:32:38.989Z,17.55
2024-04-10T16:35:07.937Z,17.51
2024-04-10T16:39:08.642Z,17.49
2024-04-10T16:41:36.928Z,17.45
2024-04-10T16:44:05.968Z,17.50
2024-04-10T16:49:09.262Z,17.62
2024-04-10T16:51:38.145Z,17.69
2024-04-10T16:54:07.276Z,17.74
2024-04-10T16:56:35.294Z,17.76
2024-04-10T16:59:03.136Z,17.73
2024-04-10T17:01:31.392Z,17.62
2024-04-10T17:03:59.771Z,17.53
2024-04-10T17:06:27.730Z,17.42
2024-04-10T17:08:58.606Z,17.36
2024-04-10T17:11:26.839Z,17.29
2024-04-10T17:13:54.773Z,17.26
2024-04-10T17:16:22.817Z,17.17
2024-04-10T17:19:09.331Z,17.16
2024-04-10T17:22:06.697Z,17.00
2024-04-10T17:24:34.502Z,16.98
2024-04-10T17:27:02.642Z,16.95
2024-04-10T17:29:30.750Z,16.92
2024-04-10T17:31:58.957Z,16.89
2024-04-10T17:34:27.219Z,16.88
2024-04-10T17:36:58.615Z,16.86
2024-04-10T17:39:27.722Z,16.79
2024-04-10T17:41:56.327Z,16.69
2024-04-10T17:44:24.166Z,16.70
2024-04-10T17:46:53.212Z,16.53
2024-04-10T17:49:20.981Z,16.52
2024-04-10T17:51:48.891Z,16.50
2024-04-10T17:54:16.536Z,16.45
2024-04-10T17:56:44.583Z,16.45
2024-04-10T17:59:12.603Z,16.47
2024-04-10T18:01:40.392Z,16.43
2024-04-10T18:04:08.400Z,16.34
2024-04-10T18:06:39.448Z,16.31
2024-04-10T18:09:07.642Z,16.31
2024-04-10T18:11:36.251Z,16.19
2024-04-10T18:14:04.389Z,16.21
2024-04-10T18:16:32.762Z,16.11
2024-04-10T18:19:01.562Z,16.02
2024-04-10T18:21:29.329Z,15.91
2024-04-10T18:23:57.542Z,15.91
2024-04-10T18:26:28.085Z,15.93
2024-04-10T18:28:56.128Z,15.90
2024-04-10T18:31:23.798Z,15.84
2024-04-10T18:33:52.202Z,15.81
2024-04-10T18:36:20.357Z,15.74
2024-04-10T18:38:48.490Z,15.68
2024-04-10T18:41:16.768Z,15.70
2024-04-10T18:43:44.508Z,15.70
2024-04-10T18:46:15.464Z,15.70
2024-04-10T18:48:43.796Z,15.77
2024-04-10T18:51:16.586Z,15.75
2024-04-10T18:53:45.854Z,15.72
2024-04-10T18:56:14.594Z,15.68
2024-04-10T18:58:43.751Z,15.73
2024-04-10T19:01:11.711Z,15.75
2024-04-10T19:03:43.499Z,15.83
2024-04-10T19:06:14.094Z,15.86
2024-04-10T19:08:44.225Z,15.91
2024-04-10T19:11:14.043Z,15.92
2024-04-10T19:13:42.236Z,15.94
2024-04-10T19:16:10.557Z,15.92
2024-04-10T19:18:41.634Z,15.89
2024-04-10T19:21:10.056Z,15.94
2024-04-10T19:23:38.144Z,15.90
2024-04-10T19:26:06.005Z,15.92
2024-04-10T19:28:33.937Z,15.88
2024-04-10T19:31:05.922Z,15.89
2024-04-10T19:33:37.178Z,15.93
2024-04-10T19:36:08.212Z,15.92
2024-04-10T19:38:36.851Z,15.96
2024-04-10T19:41:26.933Z,15.97
2024-04-10T19:43:54.978Z,15.95
2024-04-10T19:46:22.671Z,15.95
2024-04-10T19:48:50.468Z,15.95
2024-04-10T19:51:20.297Z,15.99
2024-04-10T19:53:47.974Z,15.99
2024-04-10T19:56:17.019Z,16.02
2024-04-10T19:58:45.019Z,16.07
2024-04-10T20:01:12.762Z,16.09
2024-04-10T20:03:44.234Z,16.12
2024-04-10T20:06:12.884Z,16.11
2024-04-10T20:08:42.955Z,16.09
2024-04-10T20:11:11.967Z,16.07
2024-04-10T20:13:42.104Z,16.05
2024-04-10T20:16:10.870Z,16.11
2024-04-10T20:18:40.798Z,16.15
2024-04-10T20:21:09.635Z,16.16
2024-04-10T20:23:37.124Z,16.17
2024-04-10T20:26:05.345Z,16.15
2024-04-10T20:28:55.452Z,16.19
2024-04-10T20:31:23.536Z,16.20
2024-04-10T20:33:54.884Z,16.20
2024-04-10T20:36:23.028Z,16.19
2024-04-10T20:38:51.175Z,16.22
2024-04-10T20:41:20.625Z,16.19
2024-04-10T20:43:49.215Z,16.16
2024-04-10T20:46:17.857Z,16.10
2024-04-10T20:48:50.237Z,16.13
2024-04-10T20:51:18.608Z,16.13
2024-04-10T20:53:49.825Z,16.14
2024-04-10T20:56:17.767Z,16.15
2024-04-10T20:58:46.070Z,16.19
2024-04-10T21:01:15.029Z,16.15
2024-04-10T21:03:47.513Z,16.12
2024-04-10T21:06:17.043Z,16.12
2024-04-10T21:09:06.223Z,16.14
2024-04-10T21:11:55.374Z,16.13
2024-04-10T21:14:43.097Z,16.16
2024-04-10T21:17:30.389Z,16.19
2024-04-10T21:20:16.976Z,16.27
2024-04-10T21:23:03.214Z,16.24
2024-04-10T21:25:50.492Z,16.20
2024-04-10T21:28:35.954Z,16.15
2024-04-10T21:31:22.490Z,16.04
2024-04-10T21:34:09.772Z,16.05
2024-04-10T21:36:55.802Z,15.98
2024-04-10T21:39:42.149Z,15.91
2024-04-10T21:42:28.353Z,15.86
2024-04-10T21:45:14.412Z,15.72
2024-04-10T21:48:01.400Z,15.68
2024-04-10T21:50:48.298Z,15.60
2024-04-10T21:53:34.341Z,15.56
2024-04-10T21:56:25.525Z,15.49
2024-04-10T21:59:13.604Z,15.48
2024-04-10T22:02:06.419Z,15.49
2024-04-10T22:04:57.325Z,15.49
2024-04-10T22:07:46.218Z,15.51
2024-04-10T22:10:14.186Z,15.53
2024-04-10T22:12:42.172Z,15.56
2024-04-10T22:15:11.932Z,15.53
2024-04-10T22:17:59.969Z,15.54
2024-04-10T22:20:47.621Z,15.55
2024-04-10T22:23:34.374Z,15.58
2024-04-10T22:26:02.565Z,15.54
2024-04-10T22:28:30.553Z,15.49
2024-04-10T22:30:58.181Z,15.46
2024-04-10T22:33:26.521Z,15.49
2024-04-10T22:35:58.084Z,15.49
2024-04-10T22:38:25.984Z,15.46
2024-04-10T22:40:53.699Z,15.44
2024-04-10T22:43:22.019Z,15.39
2024-04-10T22:45:49.709Z,15.43
2024-04-10T22:48:17.864Z,15.50
2024-04-10T22:50:45.950Z,15.48
2024-04-10T22:53:14.167Z,15.47
2024-04-10T22:55:42.139Z,15.47
2024-04-10T22:58:10.413Z,15.39
2024-04-10T23:00:38.510Z,15.35
2024-04-10T23:03:06.824Z,15.32
2024-04-10T23:08:28.528Z,15.29
2024-04-10T23:10:55.726Z,15.25
2024-04-10T23:13:23.950Z,15.26
2024-04-10T23:15:51.672Z,15.25
2024-04-10T23:18:31.052Z,15.26
2024-04-10T23:21:08.227Z,15.33
2024-04-10T23:23:36.509Z,15.32
2024-04-10T23:26:04.914Z,15.34
2024-04-10T23:28:33.080Z,15.34
2024-04-10T23:31:01.449Z,15.35
2024-04-10T23:33:29.904Z,15.37
2024-04-10T23:35:58.090Z,15.33
2024-04-10T23:38:26.244Z,15.37
2024-04-10T23:40:54.438Z,15.42
2024-04-10T23:43:22.445Z,15.41
2024-04-10T23:45:56.962Z,15.44
2024-04-10T23:48:26.342Z,15.42
2024-04-10T23:50:54.939Z,15.45
2024-04-10T23:53:22.796Z,15.45
2024-04-10T23:55:50.696Z,15.45
2024-04-10T23:58:18.729Z,15.49
